createdAt,value
2017-06-20T00:04:25.320Z,12.82
2017-06-20T00:06:52.117Z,11.18
2017-06-20T00:12:00.420Z,11.76
2017-06-20T00:14:27.570Z,12.30
2017-06-20T00:19:25.387Z,12.52
2017-06-20T00:21:52.472Z,11.82
2017-06-20T00:24:19.265Z,13.28
2017-06-20T00:26:47.876Z,12.52
2017-06-20T00:29:16.904Z,12.24
2017-06-20T00:31:43.704Z,11.82
2017-06-20T00:34:12.219Z,11.92
2017-06-20T00:36:40.278Z,12.26
2017-06-20T00:39:07.671Z,12.96
2017-06-20T00:41:35.261Z,12.90
2017-06-20T00:44:07.638Z,14.47
2017-06-20T00:46:38.687Z,13.57
2017-06-20T00:49:05.480Z,12.94
2017-06-20T00:54:06.516Z,11.30
2017-06-20T00:56:33.324Z,11.32
2017-06-20T00:59:00.130Z,11.55
2017-06-20T01:01:28.920Z,12.32
2017-06-20T01:03:56.108Z,11.62
2017-06-20T01:06:25.953Z,11.00
2017-06-20T01:08:54.805Z,10.97
2017-06-20T01:11:23.332Z,13.48
2017-06-20T01:13:50.884Z,11.65
2017-06-20T01:16:17.973Z,11.45
2017-06-20T01:18:44.773Z,12.52
2017-06-20T01:21:13.152Z,12.90
2017-06-20T01:23:40.811Z,12.13
2017-06-20T01:28:42.300Z,12.02
2017-06-20T01:31:11.891Z,11.93
2017-06-20T01:33:40.720Z,11.35
2017-06-20T01:36:08.632Z,13.35
2017-06-20T01:38:35.726Z,11.74
2017-06-20T01:41:03.452Z,11.68
2017-06-20T01:43:30.250Z,13.08
2017-06-20T01:51:46.128Z,12.80
2017-06-20T01:54:12.940Z,14.05
2017-06-20T01:56:45.160Z,13.77
2017-06-20T01:59:14.144Z,12.80
2017-06-20T02:04:14.120Z,14.10
2017-06-20T02:14:19.009Z,13.92
2017-06-20T02:16:46.880Z,14.42
2017-06-20T02:19:18.297Z,14.83
2017-06-20T02:24:16.429Z,14.95
2017-06-20T02:26:45.947Z,16.15
2017-06-20T02:34:25.357Z,15.92
2017-06-20T02:39:24.520Z,15.40
2017-06-20T02:41:53.031Z,15.42
2017-06-20T02:44:20.212Z,16.38
2017-06-20T02:49:18.043Z,16.52
2017-06-20T02:51:48.075Z,16.00
2017-06-20T02:56:46.340Z,15.28
2017-06-20T02:59:13.156Z,16.20
2017-06-20T03:01:43.988Z,15.92
2017-06-20T03:04:12.500Z,17.53
2017-06-20T03:06:39.300Z,15.58
2017-06-20T03:09:09.196Z,15.98
2017-06-20T03:11:36.315Z,17.43
2017-06-20T03:14:03.124Z,16.33
2017-06-20T03:19:06.401Z,16.58
2017-06-20T03:21:35.129Z,16.63
2017-06-20T03:24:01.960Z,18.67
2017-06-20T03:26:29.065Z,15.98
2017-06-20T03:31:28.160Z,16.38
2017-06-20T03:33:55.495Z,15.87
2017-06-20T03:36:22.696Z,16.00
2017-06-20T03:41:22.369Z,16.68
2017-06-20T03:43:50.115Z,15.90
2017-06-20T03:46:16.960Z,16.83
2017-06-20T03:48:44.053Z,16.82
2017-06-20T03:51:10.865Z,17.72
2017-06-20T03:53:37.686Z,16.62
2017-06-20T03:56:04.991Z,16.30
2017-06-20T03:58:37.809Z,16.35
2017-06-20T04:11:17.157Z,16.73
2017-06-20T04:13:45.726Z,17.70
2017-06-20T04:16:13.069Z,17.77
2017-06-20T04:18:40.145Z,18.00
2017-06-20T04:21:12.688Z,16.74
2017-06-20T04:23:41.224Z,18.80
2017-06-20T04:28:41.243Z,16.32
2017-06-20T04:31:08.039Z,17.32
2017-06-20T04:33:38.452Z,16.60
2017-06-20T04:36:05.665Z,14.65
2017-06-20T04:38:33.153Z,56.50
2017-06-20T04:41:00.241Z,39.42
2017-06-20T04:43:27.044Z,34.10
2017-06-20T04:45:53.827Z,26.78
2017-06-20T04:48:21.146Z,40.82
2017-06-20T04:53:20.066Z,25.56
2017-06-20T04:55:51.756Z,27.10
2017-06-20T04:58:18.564Z,18.40
2017-06-20T05:00:47.133Z,14.52
2017-06-20T05:05:46.204Z,14.86
2017-06-20T05:08:13.340Z,14.78
2017-06-20T05:10:43.010Z,15.22
2017-06-20T05:13:10.382Z,14.48
2017-06-20T05:15:39.729Z,15.08
2017-06-20T05:18:09.599Z,15.70
2017-06-20T05:20:40.220Z,15.86
2017-06-20T05:23:12.341Z,13.50
2017-06-20T05:25:40.045Z,14.98
2017-06-20T05:28:10.761Z,18.14
2017-06-20T05:30:42.458Z,19.04
2017-06-20T05:33:13.899Z,20.36
2017-06-20T05:38:15.433Z,22.34
2017-06-20T05:40:42.236Z,22.32
2017-06-20T05:43:09.320Z,23.24
2017-06-20T05:45:36.117Z,22.92
2017-06-20T05:48:03.240Z,24.02
2017-06-20T05:53:01.328Z,23.64
2017-06-20T05:55:29.940Z,22.96
2017-06-20T05:57:58.673Z,25.02
2017-06-20T06:00:25.717Z,22.50
2017-06-20T06:02:52.552Z,23.88
2017-06-20T06:05:19.706Z,23.80
2017-06-20T06:07:46.471Z,24.68
2017-06-20T06:10:13.575Z,24.08
2017-06-20T06:12:40.384Z,23.28
2017-06-20T06:15:11.113Z,23.82
2017-06-20T06:17:39.700Z,23.40
2017-06-20T06:20:07.693Z,24.64
2017-06-20T06:22:34.862Z,23.60
2017-06-20T06:25:02.085Z,24.18
2017-06-20T06:27:30.359Z,22.14
2017-06-20T06:29:57.528Z,24.40
2017-06-20T06:32:24.701Z,23.02
2017-06-20T06:34:51.764Z,22.94
2017-06-20T06:37:19.454Z,25.08
2017-06-20T06:39:46.696Z,24.08
2017-06-20T06:42:13.515Z,25.82
2017-06-20T06:44:40.581Z,24.28
2017-06-20T06:47:07.858Z,25.10
2017-06-20T06:49:34.994Z,25.72
2017-06-20T06:52:02.113Z,25.36
2017-06-20T06:54:29.201Z,26.62
2017-06-20T06:56:56.377Z,26.24
2017-06-20T06:59:23.531Z,25.80
2017-06-20T07:01:50.684Z,24.40
2017-06-20T07:04:17.500Z,24.32
2017-06-20T07:06:44.328Z,22.58
2017-06-20T07:09:11.135Z,20.86
2017-06-20T07:11:38.932Z,22.74
2017-06-20T07:14:05.714Z,20.52
2017-06-20T07:16:32.902Z,21.60
2017-06-20T07:18:59.951Z,21.40
2017-06-20T07:21:26.712Z,22.46
2017-06-20T07:23:54.307Z,23.24
2017-06-20T07:26:21.882Z,22.80
2017-06-20T07:28:48.636Z,26.90
2017-06-20T07:31:15.677Z,22.86
2017-06-20T07:33:42.726Z,21.76
2017-06-20T07:36:09.741Z,20.52
2017-06-20T07:38:36.915Z,18.44
2017-06-20T07:41:04.188Z,19.44
2017-06-20T07:43:31.316Z,21.50
2017-06-20T07:45:58.806Z,21.26
2017-06-20T07:48:25.836Z,22.44
2017-06-20T07:50:53.590Z,23.24
2017-06-20T07:53:21.168Z,22.48
2017-06-20T07:55:48.961Z,21.54
2017-06-20T07:58:15.720Z,22.28
2017-06-20T08:00:42.716Z,24.64
2017-06-20T08:03:10.154Z,25.82
2017-06-20T08:05:38.054Z,25.72
2017-06-20T08:08:05.209Z,22.56
2017-06-20T08:10:32.672Z,23.72
2017-06-20T08:12:59.679Z,24.58
2017-06-20T08:15:27.465Z,22.92
2017-06-20T08:17:56.134Z,24.48
2017-06-20T08:20:23.301Z,23.36
2017-06-20T08:22:51.053Z,21.92
2017-06-20T08:25:18.127Z,21.86
2017-06-20T08:27:45.118Z,24.58
2017-06-20T08:30:11.885Z,21.62
2017-06-20T08:32:39.168Z,20.60
2017-06-20T08:35:10.254Z,23.44
2017-06-20T08:37:37.449Z,23.36
2017-06-20T08:40:05.682Z,21.20
2017-06-20T08:42:32.789Z,21.60
2017-06-20T08:44:59.600Z,22.98
2017-06-20T08:47:27.426Z,21.06
2017-06-20T08:49:54.291Z,21.94
2017-06-20T08:52:21.512Z,22.74
2017-06-20T08:54:49.007Z,24.36
2017-06-20T08:57:16.169Z,21.80
2017-06-20T08:59:43.757Z,19.64
2017-06-20T09:02:11.173Z,18.54
2017-06-20T09:04:38.173Z,19.06
2017-06-20T09:07:04.932Z,18.96
2017-06-20T09:09:31.967Z,18.28
2017-06-20T09:11:58.732Z,20.24
2017-06-20T09:14:25.485Z,19.88
2017-06-20T09:16:52.762Z,17.60
2017-06-20T09:19:23.877Z,16.92
2017-06-20T09:21:51.598Z,18.14
2017-06-20T09:24:18.637Z,17.34
2017-06-20T09:26:45.639Z,17.60
